createdAt,value
2019-04-16T00:01:34.001Z,1.99
2019-04-16T00:04:12.526Z,2.02
2019-04-16T00:07:08.024Z,2.01
2019-04-16T00:09:51.553Z,2.02
2019-04-16T00:12:28.682Z,2.03
2019-04-16T00:14:58.563Z,2.04
2019-04-16T00:17:27.264Z,1.96
2019-04-16T00:19:53.913Z,1.95
2019-04-16T00:22:36.828Z,1.93
2019-04-16T00:25:07.183Z,1.89
2019-04-16T00:27:37.427Z,1.79
2019-04-16T00:30:05.581Z,1.75
2019-04-16T00:32:34.156Z,1.73
2019-04-16T00:35:01.553Z,1.69
2019-04-16T00:37:28.694Z,1.52
2019-04-16T00:39:59.928Z,1.37
2019-04-16T00:42:27.074Z,1.23
2019-04-16T00:45:02.732Z,1.13
2019-04-16T00:47:29.703Z,1.06
2019-04-16T00:50:00.396Z,1.09
2019-04-16T00:52:27.753Z,1.07
2019-04-16T00:54:54.505Z,1.18
2019-04-16T00:57:22.345Z,1.37
2019-04-16T00:59:49.332Z,1.53
2019-04-16T01:02:18.552Z,1.65
2019-04-16T01:04:46.901Z,1.72
2019-04-16T01:07:14.435Z,1.64
2019-04-16T01:09:41.874Z,1.42
2019-04-16T01:12:08.741Z,1.18
2019-04-16T01:14:37.332Z,1.06
2019-04-16T01:17:05.307Z,1.09
2019-04-16T01:19:33.372Z,1.15
2019-04-16T01:21:59.939Z,1.16
2019-04-16T01:24:27.844Z,1.12
2019-04-16T01:26:55.370Z,1.05
2019-04-16T01:29:23.089Z,0.95
2019-04-16T01:32:11.522Z,0.90
2019-04-16T01:34:59.924Z,0.82
2019-04-16T01:37:46.818Z,0.70
2019-04-16T01:40:19.385Z,0.72
2019-04-16T01:42:57.637Z,0.65
2019-04-16T01:45:29.615Z,0.66
2019-04-16T01:47:58.239Z,0.66
2019-04-16T01:50:24.719Z,0.67
2019-04-16T01:52:53.204Z,0.66
2019-04-16T01:55:25.487Z,0.62
2019-04-16T01:57:49.621Z,0.52
2019-04-16T02:00:19.705Z,0.49
2019-04-16T02:02:49.429Z,0.55
2019-04-16T02:05:20.345Z,0.47
2019-04-16T02:07:47.809Z,0.53
2019-04-16T02:10:17.282Z,0.63
2019-04-16T02:12:49.064Z,0.66
2019-04-16T02:15:15.909Z,0.64
2019-04-16T02:17:45.996Z,0.49
2019-04-16T02:20:15.316Z,0.36
2019-04-16T02:22:42.326Z,0.37
2019-04-16T02:25:13.566Z,0.45
2019-04-16T02:27:40.230Z,0.48
2019-04-16T02:30:10.166Z,0.45
2019-04-16T02:32:39.701Z,0.44
2019-04-16T02:35:09.903Z,0.37
2019-04-16T02:37:40.053Z,0.32
2019-04-16T02:40:07.105Z,0.27
2019-04-16T02:42:33.694Z,0.15
2019-04-16T02:45:10.345Z,0.05
2019-04-16T02:47:41.770Z,-0.04
2019-04-16T02:50:12.174Z,-0.07
2019-04-16T02:53:00.524Z,-0.13
2019-04-16T02:55:42.910Z,-0.17
2019-04-16T02:58:19.463Z,-0.16
2019-04-16T03:01:12.528Z,-0.11
2019-04-16T03:03:43.614Z,-0.11
2019-04-16T03:06:11.969Z,-0.12
2019-04-16T03:08:38.835Z,-0.11
2019-04-16T03:11:06.175Z,-0.09
2019-04-16T03:13:32.790Z,-0.02
2019-04-16T03:16:21.908Z,0.02
2019-04-16T03:19:08.623Z,0.01
2019-04-16T03:21:36.219Z,-0.01
2019-04-16T03:24:07.988Z,-0.08
2019-04-16T03:26:33.474Z,-0.16
2019-04-16T03:29:00.334Z,-0.21
2019-04-16T03:31:27.192Z,-0.23
2019-04-16T03:33:54.243Z,-0.24
2019-04-16T03:36:20.932Z,-0.31
2019-04-16T03:38:47.820Z,-0.37
2019-04-16T03:41:14.684Z,-0.51
2019-04-16T03:43:41.259Z,-0.64
2019-04-16T03:46:12.105Z,-0.63
2019-04-16T03:48:36.645Z,-0.59
2019-04-16T03:51:04.740Z,-0.56
2019-04-16T03:53:33.869Z,-0.55
2019-04-16T03:56:00.981Z,-0.42
2019-04-16T03:58:29.185Z,-0.34
2019-04-16T04:00:56.113Z,-0.24
2019-04-16T04:03:26.072Z,-0.23
2019-04-16T04:05:55.536Z,-0.27
2019-04-16T04:08:22.518Z,-0.34
2019-04-16T04:10:49.725Z,-0.44
2019-04-16T04:13:18.367Z,-0.59
2019-04-16T04:15:45.360Z,-0.69
2019-04-16T04:18:12.888Z,-0.71
2019-04-16T04:20:40.399Z,-0.72
2019-04-16T04:23:08.533Z,-0.71
2019-04-16T04:25:36.957Z,-0.66
2019-04-16T04:28:04.030Z,-0.65
2019-04-16T04:30:36.275Z,-0.59
2019-04-16T04:33:07.536Z,-0.56
2019-04-16T04:35:36.627Z,-0.58
2019-04-16T04:38:06.399Z,-0.61
2019-04-16T04:40:44.308Z,-0.65
2019-04-16T04:43:02.320Z,-0.68
2019-04-16T04:45:29.198Z,-0.73
2019-04-16T04:47:57.287Z,-0.77
2019-04-16T04:50:24.104Z,-0.83
2019-04-16T04:52:51.044Z,-0.78
2019-04-16T04:55:17.676Z,-0.73
2019-04-16T04:57:48.031Z,-0.65
2019-04-16T05:00:16.914Z,-0.54
2019-04-16T05:02:44.439Z,-0.44
2019-04-16T05:05:25.564Z,-0.32
2019-04-16T05:07:52.257Z,-0.18
2019-04-16T05:10:19.008Z,0.02
2019-04-16T05:12:45.637Z,0.21
2019-04-16T05:15:15.206Z,0.37
2019-04-16T05:17:41.796Z,0.55
2019-04-16T05:20:08.690Z,0.73
2019-04-16T05:22:35.270Z,0.87
2019-04-16T05:25:02.623Z,1.05
2019-04-16T05:27:29.664Z,1.20
2019-04-16T05:29:56.971Z,1.39
2019-04-16T05:32:26.012Z,1.54
2019-04-16T05:34:53.545Z,1.79
2019-04-16T05:37:20.936Z,2.03
2019-04-16T05:39:47.863Z,2.23
2019-04-16T05:42:14.900Z,2.46
2019-04-16T05:44:41.939Z,2.69
2019-04-16T05:47:09.943Z,2.95
2019-04-16T05:49:36.901Z,3.28
2019-04-16T05:52:04.261Z,3.56
2019-04-16T05:54:57.601Z,3.79
2019-04-16T05:57:27.650Z,4.00
2019-04-16T05:59:55.423Z,4.27
2019-04-16T06:02:27.591Z,4.64
2019-04-16T06:04:55.967Z,5.07
2019-04-16T06:07:22.891Z,5.30
2019-04-16T06:09:49.547Z,5.48
2019-04-16T06:12:16.907Z,5.55
2019-04-16T06:14:49.747Z,5.70
2019-04-16T06:17:35.179Z,5.98
2019-04-16T06:20:27.133Z,6.19
2019-04-16T06:23:31.953Z,6.31
2019-04-16T06:26:17.145Z,6.38
2019-04-16T06:28:56.386Z,6.31
2019-04-16T06:31:42.338Z,6.32
2019-04-16T06:34:27.676Z,6.52
2019-04-16T06:37:02.088Z,6.87
2019-04-16T06:39:35.822Z,7.07
2019-04-16T06:42:38.573Z,7.35
2019-04-16T06:45:16.140Z,7.29
2019-04-16T06:47:55.534Z,7.64
2019-04-16T06:50:39.610Z,7.85
2019-04-16T06:53:15.307Z,8.15
2019-04-16T06:55:59.681Z,8.04
2019-04-16T06:58:50.278Z,8.37
2019-04-16T07:01:15.911Z,8.54
2019-04-16T07:03:48.291Z,8.95
2019-04-16T07:06:35.957Z,9.29
2019-04-16T07:09:23.380Z,9.59
2019-04-16T07:11:54.625Z,9.78
2019-04-16T07:14:18.386Z,10.07
2019-04-16T07:16:45.025Z,10.11
2019-04-16T07:19:17.680Z,10.32
2019-04-16T07:21:49.641Z,10.46
2019-04-16T07:24:16.104Z,10.61
2019-04-16T07:26:46.404Z,10.63
2019-04-16T07:29:24.745Z,11.03
2019-04-16T07:32:01.071Z,10.74
2019-04-16T07:34:41.212Z,10.88
2019-04-16T07:37:14.698Z,11.10
2019-04-16T07:39:56.813Z,11.01
2019-04-16T07:42:29.051Z,11.43
2019-04-16T07:45:12.597Z,11.89
2019-04-16T07:47:51.624Z,11.68
2019-04-16T07:50:32.263Z,11.95
2019-04-16T07:53:13.321Z,12.16
2019-04-16T07:55:44.676Z,11.86
2019-04-16T07:58:11.475Z,12.02
2019-04-16T08:00:41.392Z,12.23
2019-04-16T08:03:06.657Z,12.05
2019-04-16T08:05:33.251Z,12.66
2019-04-16T08:08:00.057Z,13.35
2019-04-16T08:10:27.814Z,13.36
2019-04-16T08:13:05.181Z,13.05
2019-04-16T08:15:31.939Z,13.33
2019-04-16T08:17:58.632Z,13.56
2019-04-16T08:20:25.706Z,13.29
2019-04-16T08:22:56.187Z,13.43
2019-04-16T08:25:26.347Z,13.43
2019-04-16T08:27:55.073Z,13.82
2019-04-16T08:30:22.700Z,14.11
2019-04-16T08:32:51.527Z,13.67
2019-04-16T08:35:18.517Z,14.31
2019-04-16T08:37:49.346Z,14.65
2019-04-16T08:40:16.976Z,15.13
2019-04-16T08:42:45.176Z,15.45
2019-04-16T08:45:13.356Z,15.42
2019-04-16T08:47:44.514Z,15.78
2019-04-16T08:50:11.751Z,16.30
2019-04-16T08:52:38.557Z,16.65
2019-04-16T08:55:07.087Z,17.00
2019-04-16T08:57:40.627Z,17.08
2019-04-16T09:00:15.229Z,16.86
2019-04-16T09:02:42.054Z,17.50
2019-04-16T09:05:11.532Z,17.52
2019-04-16T09:07:40.606Z,17.15
2019-04-16T09:10:20.277Z,17.77
2019-04-16T09:13:01.954Z,17.50
2019-04-16T09:15:34.415Z,17.38
2019-04-16T09:18:27.717Z,17.55
2019-04-16T09:20:54.625Z,17.90
2019-04-16T09:23:22.785Z,18.24
2019-04-16T09:26:12.385Z,18.09
2019-04-16T09:28:39.221Z,18.01
2019-04-16T09:31:28.824Z,17.81
2019-04-16T09:33:59.210Z,17.85
2019-04-16T09:36:36.345Z,16.82
2019-04-16T09:39:12.577Z,17.14
2019-04-16T09:41:42.233Z,16.98
2019-04-16T09:44:09.052Z,17.29
2019-04-16T09:46:52.336Z,17.29
2019-04-16T09:49:05.958Z,17.02
2019-04-16T09:51:33.130Z,16.43
2019-04-16T09:54:00.180Z,16.62
2019-04-16T09:56:31.496Z,16.81
2019-04-16T09:59:31.416Z,17.04
2019-04-16T10:02:07.337Z,16.92
2019-04-16T10:04:36.649Z,17.00
2019-04-16T10:07:05.658Z,16.76
2019-04-16T10:09:37.157Z,16.44
2019-04-16T10:12:04.975Z,16.87
2019-04-16T10:14:33.060Z,16.58
2019-04-16T10:16:59.907Z,17.11
2019-04-16T10:19:26.473Z,17.17
2019-04-16T10:21:54.236Z,17.15
2019-04-16T10:24:39.978Z,17.15
2019-04-16T10:27:08.302Z,16.77
2019-04-16T10:29:34.880Z,17.28
2019-04-16T10:32:01.874Z,17.53
2019-04-16T10:34:28.484Z,17.12
2019-04-16T10:36:55.179Z,17.69
2019-04-16T10:39:41.692Z,17.93
2019-04-16T10:42:31.388Z,17.62
2019-04-16T10:45:09.545Z,17.52
2019-04-16T10:48:00.565Z,17.78
2019-04-16T10:51:15.506Z,17.83
2019-04-16T10:54:05.504Z,17.73
2019-04-16T10:56:56.810Z,18.49
2019-04-16T10:59:46.034Z,18.70
2019-04-16T11:02:36.090Z,18.95
2019-04-16T11:05:15.334Z,18.65
2019-04-16T11:07:48.101Z,18.76
2019-04-16T11:10:17.965Z,18.23
2019-04-16T11:12:45.616Z,18.82
2019-04-16T11:15:26.403Z,19.00
2019-04-16T11:18:02.112Z,19.29
2019-04-16T11:20:32.225Z,19.64
2019-04-16T11:23:08.131Z,19.80
2019-04-16T11:25:37.474Z,19.57
2019-04-16T11:28:06.100Z,19.22
2019-04-16T11:30:36.878Z,18.69
2019-04-16T11:33:05.101Z,19.17
2019-04-16T11:35:36.408Z,18.87
2019-04-16T11:38:05.768Z,18.62
2019-04-16T11:40:36.206Z,18.79
2019-04-16T11:43:04.551Z,18.66
2019-04-16T11:45:31.571Z,19.09
2019-04-16T11:47:58.877Z,19.35
2019-04-16T11:50:26.216Z,19.26
2019-04-16T11:52:58.200Z,19.29
2019-04-16T11:55:24.262Z,19.34
2019-04-16T11:57:51.278Z,19.00
2019-04-16T12:00:50.438Z,18.40
2019-04-16T12:03:34.995Z,19.14
2019-04-16T12:06:32.282Z,18.59
2019-04-16T12:09:21.488Z,18.67
2019-04-16T12:12:13.059Z,18.70
2019-04-16T12:15:15.324Z,19.05
2019-04-16T12:18:00.100Z,18.86
2019-04-16T12:20:45.328Z,18.76
2019-04-16T12:23:28.343Z,19.18
2019-04-16T12:26:16.485Z,18.84
2019-04-16T12:28:59.029Z,19.04
2019-04-16T12:31:48.045Z,19.35
2019-04-16T12:34:27.158Z,18.95
2019-04-16T12:37:06.682Z,18.45
2019-04-16T12:39:45.868Z,18.62
2019-04-16T12:42:42.241Z,18.65
2019-04-16T12:45:21.135Z,18.17
2019-04-16T12:47:58.964Z,18.69
2019-04-16T12:50:39.740Z,18.48
2019-04-16T12:53:10.926Z,18.82
2019-04-16T12:55:57.245Z,19.20
2019-04-16T12:58:38.679Z,19.11
2019-04-16T13:01:26.252Z,19.29
2019-04-16T13:04:07.705Z,18.06
2019-04-16T13:06:42.595Z,18.68
2019-04-16T13:09:29.503Z,19.00
2019-04-16T13:12:14.176Z,18.92
2019-04-16T13:15:11.992Z,18.76
2019-04-16T13:18:02.519Z,18.69
2019-04-16T13:20:48.379Z,18.72
2019-04-16T13:23:22.640Z,18.37
2019-04-16T13:25:58.748Z,18.78
2019-04-16T13:28:25.500Z,18.25
2019-04-16T13:30:52.106Z,17.44
2019-04-16T13:33:21.476Z,17.79
2019-04-16T13:35:48.959Z,17.58
2019-04-16T13:38:18.375Z,17.86
2019-04-16T13:40:45.741Z,17.73
2019-04-16T13:43:15.631Z,17.68
2019-04-16T13:45:42.754Z,17.68
2019-04-16T13:48:28.209Z,18.25
2019-04-16T13:51:01.083Z,18.07
2019-04-16T13:53:51.137Z,17.92
2019-04-16T13:56:25.254Z,17.92
2019-04-16T13:59:21.916Z,17.47
2019-04-16T14:01:59.009Z,17.36
2019-04-16T14:04:30.587Z,17.36
2019-04-16T14:06:56.348Z,17.49
2019-04-16T14:09:26.179Z,17.87
2019-04-16T14:11:53.465Z,17.92
2019-04-16T14:14:22.574Z,17.97
2019-04-16T14:16:49.453Z,17.58
2019-04-16T14:19:16.378Z,17.79
2019-04-16T14:21:45.074Z,17.79
2019-04-16T14:24:12.917Z,17.58
2019-04-16T14:26:41.285Z,17.28
2019-04-16T14:29:09.033Z,17.08
2019-04-16T14:31:36.578Z,17.08
2019-04-16T14:34:23.108Z,17.09
2019-04-16T14:36:50.134Z,17.15
2019-04-16T14:39:34.442Z,17.08
2019-04-16T14:42:01.852Z,17.10
2019-04-16T14:44:34.620Z,16.85
2019-04-16T14:47:02.228Z,16.81
2019-04-16T14:49:30.987Z,16.86
2019-04-16T14:52:02.105Z,16.70
2019-04-16T14:54:31.850Z,16.76
2019-04-16T14:57:00.152Z,16.89
2019-04-16T14:59:50.870Z,16.89
2019-04-16T15:02:40.128Z,16.73
2019-04-16T15:05:27.939Z,16.70
2019-04-16T15:08:12.622Z,16.76
2019-04-16T15:11:04.885Z,16.62
2019-04-16T15:13:54.365Z,16.51
2019-04-16T15:16:37.200Z,16.54
2019-04-16T15:19:30.596Z,16.45
2019-04-16T15:22:20.047Z,16.49
2019-04-16T15:25:15.196Z,16.52
2019-04-16T15:27:54.849Z,16.43
2019-04-16T15:30:40.295Z,16.37
2019-04-16T15:33:25.489Z,16.20
2019-04-16T15:35:56.475Z,16.36
2019-04-16T15:38:37.854Z,16.33
2019-04-16T15:41:17.608Z,16.32
2019-04-16T15:43:54.766Z,16.29
2019-04-16T15:46:51.112Z,16.06
2019-04-16T15:49:34.661Z,16.08
2019-04-16T15:52:30.303Z,16.03
2019-04-16T15:55:24.220Z,15.90
2019-04-16T15:58:04.925Z,15.83
2019-04-16T16:01:07.051Z,15.91
2019-04-16T16:03:57.494Z,15.93
2019-04-16T16:06:32.543Z,15.91
2019-04-16T16:09:07.478Z,15.77
2019-04-16T16:11:48.142Z,15.74
2019-04-16T16:14:18.180Z,15.74
2019-04-16T16:16:50.795Z,15.68
2019-04-16T16:19:21.179Z,15.59
2019-04-16T16:21:54.117Z,15.51
2019-04-16T16:24:23.940Z,15.50
2019-04-16T16:26:52.035Z,15.40
2019-04-16T16:29:20.009Z,15.36
2019-04-16T16:31:50.984Z,15.37
2019-04-16T16:34:21.433Z,15.25
2019-04-16T16:36:51.586Z,15.24
2019-04-16T16:39:18.509Z,15.19
2019-04-16T16:41:46.659Z,15.18
2019-04-16T16:44:14.127Z,15.11
2019-04-16T16:47:12.679Z,15.07
2019-04-16T16:49:39.881Z,14.95
2019-04-16T16:52:27.276Z,14.90
2019-04-16T16:54:55.643Z,14.82
2019-04-16T16:57:40.606Z,14.72
2019-04-16T17:00:26.390Z,14.70
2019-04-16T17:02:57.941Z,14.63
2019-04-16T17:05:31.696Z,14.58
2019-04-16T17:07:59.886Z,14.51
2019-04-16T17:10:27.124Z,14.43
2019-04-16T17:12:56.147Z,14.35
2019-04-16T17:15:23.774Z,14.26
2019-04-16T17:17:50.849Z,14.16
2019-04-16T17:20:34.690Z,14.07
2019-04-16T17:23:02.131Z,13.95
2019-04-16T17:25:36.090Z,13.91
2019-04-16T17:27:58.025Z,13.87
2019-04-16T17:30:25.854Z,13.84
2019-04-16T17:32:52.806Z,13.73
2019-04-16T17:35:23.230Z,13.65
2019-04-16T17:37:51.392Z,13.60
2019-04-16T17:40:43.840Z,13.52
2019-04-16T17:43:40.277Z,13.51
2019-04-16T17:46:27.582Z,13.43
2019-04-16T17:49:12.913Z,13.35
2019-04-16T17:52:20.121Z,13.30
2019-04-16T17:55:11.747Z,13.31
2019-04-16T17:57:53.491Z,13.18
2019-04-16T18:00:48.435Z,13.10
2019-04-16T18:03:28.176Z,13.05
2019-04-16T18:06:16.841Z,12.97
2019-04-16T18:08:59.899Z,12.87
2019-04-16T18:11:44.799Z,12.77
2019-04-16T18:14:34.177Z,12.68
2019-04-16T18:17:15.190Z,12.68
2019-04-16T18:20:02.812Z,12.64
2019-04-16T18:22:36.215Z,12.53
2019-04-16T18:25:23.623Z,12.50
2019-04-16T18:28:04.228Z,12.43
2019-04-16T18:30:43.211Z,12.35
2019-04-16T18:33:15.839Z,12.37
2019-04-16T18:35:53.678Z,12.30
2019-04-16T18:38:43.388Z,12.32
2019-04-16T18:41:16.507Z,12.27
2019-04-16T18:44:14.733Z,12.22
2019-04-16T18:47:05.046Z,12.20
2019-04-16T18:49:33.351Z,12.16
2019-04-16T18:52:05.365Z,12.14
2019-04-16T18:54:31.286Z,12.10
2019-04-16T18:56:59.137Z,12.02
2019-04-16T18:59:26.104Z,12.02
2019-04-16T19:01:59.084Z,12.01
2019-04-16T19:04:26.280Z,12.00
2019-04-16T19:06:53.527Z,11.97
2019-04-16T19:09:21.348Z,11.90
2019-04-16T19:11:51.566Z,11.90
2019-04-16T19:14:20.361Z,11.87
2019-04-16T19:16:47.275Z,11.79
2019-04-16T19:19:14.246Z,11.74
2019-04-16T19:21:42.542Z,11.67
2019-04-16T19:24:09.602Z,11.64
2019-04-16T19:26:36.428Z,11.64
2019-04-16T19:29:05.525Z,11.59
2019-04-16T19:31:32.764Z,11.65
2019-04-16T19:33:59.470Z,11.57
2019-04-16T19:36:27.549Z,11.47
2019-04-16T19:38:56.887Z,11.41
2019-04-16T19:41:24.822Z,11.38
2019-04-16T19:43:54.462Z,11.40
2019-04-16T19:46:22.423Z,11.41
2019-04-16T19:48:51.258Z,11.35
2019-04-16T19:51:19.817Z,11.38
2019-04-16T19:53:48.580Z,11.34
2019-04-16T19:56:15.497Z,11.33
2019-04-16T19:58:46.744Z,11.25
2019-04-16T20:01:13.840Z,11.22
2019-04-16T20:03:43.590Z,11.27
2019-04-16T20:06:10.496Z,11.25
2019-04-16T20:08:39.937Z,11.12
2019-04-16T20:11:06.951Z,11.06
2019-04-16T20:13:34.125Z,11.04
2019-04-16T20:16:04.072Z,10.92
2019-04-16T20:18:31.438Z,10.86
2019-04-16T20:21:01.476Z,10.81
2019-04-16T20:23:30.090Z,10.76
2019-04-16T20:26:00.404Z,10.71
2019-04-16T20:28:27.005Z,10.63
2019-04-16T20:31:01.365Z,10.59
2019-04-16T20:33:23.006Z,10.48
2019-04-16T20:35:50.671Z,10.45
2019-04-16T20:38:18.390Z,10.37
2019-04-16T20:40:45.481Z,10.27
2019-04-16T20:43:12.088Z,10.23
2019-04-16T20:45:38.736Z,10.25
2019-04-16T20:48:08.798Z,10.18
2019-04-16T20:50:34.939Z,10.12
2019-04-16T20:53:06.513Z,10.03
2019-04-16T20:55:30.772Z,9.94
2019-04-16T20:58:00.033Z,9.86
2019-04-16T21:00:29.020Z,9.76
2019-04-16T21:02:55.998Z,9.73
2019-04-16T21:05:23.713Z,9.76
2019-04-16T21:08:04.637Z,9.73
2019-04-16T21:10:36.436Z,9.66
2019-04-16T21:13:03.652Z,9.49
2019-04-16T21:15:36.673Z,9.33
2019-04-16T21:18:03.786Z,9.25
2019-04-16T21:20:31.070Z,9.15
2019-04-16T21:23:01.533Z,9.01
2019-04-16T21:25:27.358Z,9.09
2019-04-16T21:28:06.222Z,9.20
2019-04-16T21:30:33.122Z,9.24
2019-04-16T21:33:23.202Z,9.23
2019-04-16T21:35:52.595Z,9.24
2019-04-16T21:38:31.057Z,9.23
2019-04-16T21:40:57.849Z,8.99
2019-04-16T21:44:13.197Z,8.64
2019-04-16T21:46:40.555Z,8.32
2019-04-16T21:49:08.884Z,7.92
2019-04-16T21:51:38.648Z,7.78
2019-04-16T21:54:06.787Z,7.58
2019-04-16T21:56:36.820Z,7.47
2019-04-16T21:59:04.720Z,7.32
2019-04-16T22:01:37.282Z,7.22
2019-04-16T22:04:13.223Z,7.15
2019-04-16T22:06:39.956Z,7.03
2019-04-16T22:09:13.437Z,6.90
2019-04-16T22:11:43.451Z,6.82
2019-04-16T22:14:08.975Z,6.80
2019-04-16T22:16:39.402Z,6.73
2019-04-16T22:19:06.105Z,6.57
2019-04-16T22:21:32.767Z,6.49
2019-04-16T22:23:59.811Z,6.50
2019-04-16T22:26:26.670Z,6.34
2019-04-16T22:28:53.271Z,6.19
2019-04-16T22:31:23.802Z,6.19
2019-04-16T22:33:49.691Z,6.14
2019-04-16T22:36:16.272Z,6.08
2019-04-16T22:38:46.101Z,6.02
2019-04-16T22:41:27.307Z,5.96
2019-04-16T22:44:10.610Z,5.89
2019-04-16T22:46:41.845Z,5.86
2019-04-16T22:49:08.686Z,5.77
2019-04-16T22:51:35.371Z,5.79
2019-04-16T22:54:02.982Z,5.76
2019-04-16T22:56:47.607Z,5.79
2019-04-16T22:59:14.183Z,5.74
2019-04-16T23:01:44.897Z,5.43
2019-04-16T23:04:12.278Z,5.28
2019-04-16T23:06:39.035Z,5.16
2019-04-16T23:09:06.068Z,5.16
2019-04-16T23:11:32.873Z,5.20
2019-04-16T23:14:02.523Z,5.20
2019-04-16T23:16:28.293Z,5.17
2019-04-16T23:18:54.803Z,5.16
2019-04-16T23:21:21.337Z,5.03
2019-04-16T23:23:51.484Z,4.98
2019-04-16T23:26:19.534Z,4.77
2019-04-16T23:28:46.363Z,4.71
2019-04-16T23:31:13.034Z,4.70
2019-04-16T23:33:39.759Z,4.67
2019-04-16T23:36:07.368Z,4.67
2019-04-16T23:38:34.234Z,4.64
2019-04-16T23:41:00.823Z,4.68
2019-04-16T23:43:36.966Z,4.64
2019-04-16T23:46:21.861Z,4.57
2019-04-16T23:49:20.029Z,4.53
2019-04-16T23:51:53.847Z,4.46
2019-04-16T23:54:40.702Z,4.37
2019-04-16T23:57:24.879Z,4.25
